Time;durP1;ratioP1;P1;durP2;ratioP2;P2;SDS_P1;SDS_P2;PMS_P1;PMS_P2;Temp;Humidity;BMP_temperature;BMP_pressure;BME280_temperature;BME280_humidity;BME280_pressure;Samples;Min_cycle;Max_cycle;Signal;HPM_P1;HPM_P2
2022/05/15 00:01:48;;;;;;;0.10;0.10;;;;;;;;;;5057126;28;20032;-59
2022/05/15 00:04:13;;;;;;;0.20;0.20;;;;;;;;;;5073445;28;20029;-60
2022/05/15 00:06:39;;;;;;;0.10;0.10;;;;;;;;;;5072441;28;20377;-59
2022/05/15 00:09:07;;;;;;;0.10;0.10;;;;;;;;;;5073431;28;20037;-60
2022/05/15 00:11:36;;;;;;;0.10;0.10;;;;;;;;;;5073261;28;20047;-59
2022/05/15 00:14:02;;;;;;;0.10;0.10;;;;;;;;;;5073100;28;20099;-61
2022/05/15 00:16:31;;;;;;;0.13;0.13;;;;;;;;;;5073216;28;20537;-61
2022/05/15 00:18:57;;;;;;;0.73;0.73;;;;;;;;;;5073049;28;20037;-61
2022/05/15 00:21:24;;;;;;;0.10;0.10;;;;;;;;;;5053997;28;20067;-60
2022/05/15 00:23:50;;;;;;;0.10;0.10;;;;;;;;;;5071623;28;20060;-60
2022/05/15 00:26:19;;;;;;;3.15;1.27;;;;;;;;;;5073224;28;20029;-61
2022/05/15 00:28:47;;;;;;;0.10;0.10;;;;;;;;;;5062421;28;20040;-61
2022/05/15 00:31:13;;;;;;;0.20;0.20;;;;;;;;;;5040122;28;20035;-59
2022/05/15 00:33:44;;;;;;;0.15;0.15;;;;;;;;;;5072394;28;20029;-60
2022/05/15 00:36:15;;;;;;;0.10;0.10;;;;;;;;;;5055091;28;20071;-60
2022/05/15 00:38:43;;;;;;;0.10;0.10;;;;;;;;;;5055145;28;20033;-61
2022/05/15 00:41:15;;;;;;;0.10;0.10;;;;;;;;;;5072813;28;20033;-60
2022/05/15 00:43:48;;;;;;;0.10;0.10;;;;;;;;;;5054547;28;20395;-61
2022/05/15 00:46:16;;;;;;;0.10;0.10;;;;;;;;;;5072778;28;20037;-60
2022/05/15 00:48:51;;;;;;;0.10;0.10;;;;;;;;;;5055200;28;20032;-60
2022/05/15 00:51:20;;;;;;;2.38;2.17;;;;;;;;;;5071596;28;20040;-60
2022/05/15 00:53:51;;;;;;;0.10;0.10;;;;;;;;;;5060187;28;20036;-60
2022/05/15 00:56:24;;;;;;;0.10;0.10;;;;;;;;;;5058653;28;20182;-61
2022/05/15 00:59:00;;;;;;;0.15;0.15;;;;;;;;;;5053273;28;20041;-60
2022/05/15 01:01:31;;;;;;;0.10;0.10;;;;;;;;;;5072627;28;20033;-61
2022/05/15 01:03:59;;;;;;;0.10;0.10;;;;;;;;;;5054123;28;20036;-60
2022/05/15 01:06:24;;;;;;;0.10;0.10;;;;;;;;;;5071132;28;20147;-60
2022/05/15 01:09:13;;;;;;;0.10;0.10;;;;;;;;;;5071785;28;20178;-60
2022/05/15 01:11:40;;;;;;;0.10;0.10;;;;;;;;;;5072527;28;20123;-59
2022/05/15 01:14:09;;;;;;;0.10;0.10;;;;;;;;;;5071647;28;20044;-60
2022/05/15 01:16:36;;;;;;;0.10;0.10;;;;;;;;;;5054310;28;20190;-60
2022/05/15 01:19:03;;;;;;;2.13;2.03;;;;;;;;;;5037741;28;20037;-60
2022/05/15 01:21:33;;;;;;;0.15;0.15;;;;;;;;;;5071162;28;20411;-60
2022/05/15 01:24:00;;;;;;;0.10;0.10;;;;;;;;;;5054301;28;20029;-61
2022/05/15 01:26:29;;;;;;;0.10;0.10;;;;;;;;;;5054244;28;20058;-60
2022/05/15 01:28:54;;;;;;;0.10;0.10;;;;;;;;;;5071448;28;20036;-60
2022/05/15 01:31:23;;;;;;;12.15;4.03;;;;;;;;;;5072009;28;20483;-61
2022/05/15 01:33:49;;;;;;;0.20;0.20;;;;;;;;;;5072215;28;20426;-60
2022/05/15 01:36:18;;;;;;;0.10;0.10;;;;;;;;;;5054371;28;20150;-60
2022/05/15 01:38:44;;;;;;;0.10;0.10;;;;;;;;;;5054157;28;20036;-60
2022/05/15 01:41:12;;;;;;;0.20;0.20;;;;;;;;;;5072130;28;20078;-60
2022/05/15 01:43:43;;;;;;;0.25;0.25;;;;;;;;;;5053671;28;20483;-60
2022/05/15 01:46:09;;;;;;;0.10;0.10;;;;;;;;;;5054074;28;20045;-60
2022/05/15 01:48:35;;;;;;;0.17;0.17;;;;;;;;;;5054020;28;20043;-60
2022/05/15 01:51:02;;;;;;;0.10;0.10;;;;;;;;;;5070606;28;20044;-60
2022/05/15 01:53:28;;;;;;;0.10;0.10;;;;;;;;;;5071990;28;20380;-60
2022/05/15 01:55:54;;;;;;;0.20;0.20;;;;;;;;;;5053803;28;20039;-61
2022/05/15 01:58:19;;;;;;;0.20;0.20;;;;;;;;;;5070823;28;20036;-60
2022/05/15 02:00:46;;;;;;;0.43;0.43;;;;;;;;;;5053617;28;20047;-59
2022/05/15 02:03:11;;;;;;;0.10;0.10;;;;;;;;;;5054129;28;20025;-61
2022/05/15 02:05:37;;;;;;;0.10;0.10;;;;;;;;;;5071930;28;20044;-59
2022/05/15 02:08:03;;;;;;;0.10;0.10;;;;;;;;;;5071612;28;20037;-59
2022/05/15 02:10:29;;;;;;;0.10;0.10;;;;;;;;;;5053770;28;20035;-61
2022/05/15 02:12:54;;;;;;;0.10;0.10;;;;;;;;;;5071521;28;20036;-60
2022/05/15 02:15:21;;;;;;;0.10;0.10;;;;;;;;;;5071408;28;20037;-61
2022/05/15 02:17:47;;;;;;;0.10;0.10;;;;;;;;;;5071594;28;20082;-60
2022/05/15 02:20:14;;;;;;;0.10;0.10;;;;;;;;;;5070190;28;20040;-60
2022/05/15 02:22:40;;;;;;;0.22;0.22;;;;;;;;;;5070941;28;20492;-60
2022/05/15 02:25:07;;;;;;;0.20;0.20;;;;;;;;;;5053681;28;20038;-59
2022/05/15 02:27:38;;;;;;;0.10;0.10;;;;;;;;;;5053168;28;20495;-59
2022/05/15 02:30:05;;;;;;;0.10;0.10;;;;;;;;;;5074197;28;20039;-59
2022/05/15 02:32:30;;;;;;;0.10;0.10;;;;;;;;;;5075177;28;20024;-59
2022/05/15 02:34:56;;;;;;;0.20;0.20;;;;;;;;;;5074992;28;20077;-59
2022/05/15 02:37:21;;;;;;;0.10;0.10;;;;;;;;;;5074988;28;20064;-59
2022/05/15 02:39:47;;;;;;;0.10;0.10;;;;;;;;;;5056676;28;20037;-59
2022/05/15 02:42:13;;;;;;;0.90;0.90;;;;;;;;;;5056131;28;20028;-60
2022/05/15 02:44:40;;;;;;;0.10;0.10;;;;;;;;;;5056537;28;20037;-60
2022/05/15 02:47:05;;;;;;;1.83;1.75;;;;;;;;;;5074615;28;20593;-60
2022/05/15 02:52:15;;;;;;;1.13;1.13;;;;;;;;;;5074734;28;20029;-59
2022/05/15 02:54:42;;;;;;;0.10;0.10;;;;;;;;;;5074543;28;20039;-59
2022/05/15 02:57:08;;;;;;;0.10;0.10;;;;;;;;;;5056387;28;20432;-60
2022/05/15 02:59:33;;;;;;;0.10;0.10;;;;;;;;;;5056475;28;20146;-59
2022/05/15 03:01:59;;;;;;;0.15;0.15;;;;;;;;;;5073139;28;20052;-62
2022/05/15 03:04:25;;;;;;;0.10;0.10;;;;;;;;;;5068926;28;20407;-60
2022/05/15 03:06:51;;;;;;;0.20;0.20;;;;;;;;;;5069788;28;20031;-60
2022/05/15 03:09:16;;;;;;;0.10;0.10;;;;;;;;;;5070212;28;20033;-59
2022/05/15 03:11:42;;;;;;;0.10;0.10;;;;;;;;;;5069631;28;20503;-60
2022/05/15 03:14:08;;;;;;;0.10;0.10;;;;;;;;;;5067417;28;20122;-61
2022/05/15 03:16:33;;;;;;;0.10;0.10;;;;;;;;;;5035313;28;20033;-60
2022/05/15 03:19:00;;;;;;;0.20;0.20;;;;;;;;;;5069823;28;20044;-60
2022/05/15 03:21:29;;;;;;;0.10;0.10;;;;;;;;;;5069499;28;20542;-62
2022/05/15 03:24:00;;;;;;;0.20;0.20;;;;;;;;;;5069967;28;20043;-60
2022/05/15 03:26:26;;;;;;;0.10;0.10;;;;;;;;;;5068811;28;20078;-60
2022/05/15 03:28:52;;;;;;;0.20;0.20;;;;;;;;;;5051010;28;20498;-59
2022/05/15 03:31:18;;;;;;;0.10;0.10;;;;;;;;;;5069305;28;20127;-62
2022/05/15 03:33:43;;;;;;;0.10;0.10;;;;;;;;;;5051310;28;20036;-60
2022/05/15 03:36:12;;;;;;;0.20;0.20;;;;;;;;;;5051110;28;20032;-60
2022/05/15 03:38:38;;;;;;;0.10;0.10;;;;;;;;;;5051252;28;20044;-60
2022/05/15 03:41:04;;;;;;;0.10;0.10;;;;;;;;;;5067346;28;20036;-60
2022/05/15 03:43:29;;;;;;;0.10;0.10;;;;;;;;;;5069154;28;20043;-60
2022/05/15 03:45:55;;;;;;;0.10;0.10;;;;;;;;;;5068912;28;20074;-61
2022/05/15 03:48:20;;;;;;;0.10;0.10;;;;;;;;;;5069005;28;20119;-60
2022/05/15 03:50:46;;;;;;;0.20;0.20;;;;;;;;;;5068987;28;20025;-60
2022/05/15 03:53:11;;;;;;;0.20;0.20;;;;;;;;;;5068255;28;20054;-59
2022/05/15 03:55:37;;;;;;;0.10;0.10;;;;;;;;;;5068974;28;20086;-61
2022/05/15 03:58:02;;;;;;;0.13;0.13;;;;;;;;;;5050802;28;20085;-60
2022/05/15 04:00:28;;;;;;;0.10;0.10;;;;;;;;;;5068019;28;20031;-61
2022/05/15 04:02:56;;;;;;;0.20;0.20;;;;;;;;;;5050960;28;20075;-60
2022/05/15 04:05:21;;;;;;;0.10;0.10;;;;;;;;;;5069240;28;20142;-60
2022/05/15 04:07:48;;;;;;;0.10;0.10;;;;;;;;;;5051000;28;20036;-60
2022/05/15 04:10:15;;;;;;;0.20;0.20;;;;;;;;;;5068297;28;20044;-60
2022/05/15 04:12:41;;;;;;;0.10;0.10;;;;;;;;;;5067981;28;20089;-60
2022/05/15 04:15:07;;;;;;;0.10;0.10;;;;;;;;;;5050843;28;20036;-61
2022/05/15 04:17:33;;;;;;;0.10;0.10;;;;;;;;;;5033944;28;20111;-60
2022/05/15 04:20:05;;;;;;;0.20;0.20;;;;;;;;;;5068559;28;20540;-60
2022/05/15 04:22:30;;;;;;;0.10;0.10;;;;;;;;;;5066301;28;20124;-60
2022/05/15 04:24:56;;;;;;;0.10;0.10;;;;;;;;;;5068769;28;20108;-60
2022/05/15 04:27:24;;;;;;;0.10;0.10;;;;;;;;;;5068735;28;20548;-59
2022/05/15 04:29:49;;;;;;;0.10;0.10;;;;;;;;;;5050542;28;20037;-60
2022/05/15 04:32:15;;;;;;;0.10;0.10;;;;;;;;;;5068718;28;20154;-61
2022/05/15 04:34:40;;;;;;;0.10;0.10;;;;;;;;;;5050619;28;20041;-61
2022/05/15 04:37:06;;;;;;;0.25;0.25;;;;;;;;;;5050209;28;20489;-60
2022/05/15 04:39:33;;;;;;;0.20;0.20;;;;;;;;;;5067908;28;20048;-60
2022/05/15 04:42:00;;;;;;;0.20;0.20;;;;;;;;;;5050867;28;20029;-61
2022/05/15 04:44:25;;;;;;;0.10;0.10;;;;;;;;;;5050337;28;20032;-60
2022/05/15 04:46:51;;;;;;;0.10;0.10;;;;;;;;;;5049990;28;20037;-60
2022/05/15 04:49:16;;;;;;;0.20;0.20;;;;;;;;;;5068137;28;20033;-60
2022/05/15 04:51:41;;;;;;;0.10;0.10;;;;;;;;;;5068092;28;20391;-60
2022/05/15 04:54:07;;;;;;;0.20;0.20;;;;;;;;;;5068130;28;20065;-60
2022/05/15 04:56:33;;;;;;;0.40;0.40;;;;;;;;;;5067738;28;20134;-59
2022/05/15 04:58:58;;;;;;;0.10;0.10;;;;;;;;;;5049364;28;20456;-60
2022/05/15 05:01:25;;;;;;;0.10;0.10;;;;;;;;;;5067867;28;20123;-60
2022/05/15 05:03:55;;;;;;;0.10;0.10;;;;;;;;;;5068023;28;20036;-61
2022/05/15 05:06:21;;;;;;;0.10;0.10;;;;;;;;;;5068033;28;20487;-61
2022/05/15 05:08:49;;;;;;;0.20;0.20;;;;;;;;;;5067668;28;20430;-61
2022/05/15 05:11:15;;;;;;;0.10;0.10;;;;;;;;;;5066797;28;20048;-61
2022/05/15 05:13:40;;;;;;;0.10;0.10;;;;;;;;;;5049647;28;20024;-59
2022/05/15 05:16:06;;;;;;;0.10;0.10;;;;;;;;;;5067719;28;20090;-62
2022/05/15 05:18:31;;;;;;;0.10;0.10;;;;;;;;;;5049470;28;20037;-60
2022/05/15 05:20:57;;;;;;;0.10;0.10;;;;;;;;;;5049763;28;20032;-61
2022/05/15 05:23:22;;;;;;;1.27;0.95;;;;;;;;;;5067719;28;20380;-61
2022/05/15 05:25:48;;;;;;;0.10;0.10;;;;;;;;;;5067680;28;20039;-61
2022/05/15 05:28:14;;;;;;;0.10;0.10;;;;;;;;;;5067273;28;20688;-60
2022/05/15 05:30:40;;;;;;;0.10;0.10;;;;;;;;;;5049577;28;20527;-62
2022/05/15 05:33:06;;;;;;;0.10;0.10;;;;;;;;;;5049936;28;20076;-60
2022/05/15 05:35:32;;;;;;;0.10;0.10;;;;;;;;;;5067087;28;20067;-60
2022/05/15 05:37:57;;;;;;;0.10;0.10;;;;;;;;;;5067589;28;20037;-60
2022/05/15 05:40:23;;;;;;;0.10;0.10;;;;;;;;;;5067000;28;20138;-60
2022/05/15 05:42:48;;;;;;;0.10;0.10;;;;;;;;;;5066983;28;20032;-60
2022/05/15 05:45:14;;;;;;;0.10;0.10;;;;;;;;;;5067505;28;20029;-60
2022/05/15 05:47:39;;;;;;;0.10;0.10;;;;;;;;;;5067246;28;20144;-60
2022/05/15 05:50:08;;;;;;;0.10;0.10;;;;;;;;;;5067484;28;20086;-61
2022/05/15 05:52:35;;;;;;;0.10;0.10;;;;;;;;;;5066477;28;20051;-60
2022/05/15 05:55:01;;;;;;;0.10;0.10;;;;;;;;;;5066215;28;20025;-59
2022/05/15 05:57:26;;;;;;;0.10;0.10;;;;;;;;;;5049381;28;20029;-60
2022/05/15 05:59:52;;;;;;;0.10;0.10;;;;;;;;;;5067218;28;20047;-60
2022/05/15 06:02:18;;;;;;;0.10;0.10;;;;;;;;;;5047875;28;20029;-61
2022/05/15 06:04:46;;;;;;;0.10;0.10;;;;;;;;;;5069505;28;20029;-60
2022/05/15 06:07:13;;;;;;;0.10;0.10;;;;;;;;;;5069489;28;20916;-60
2022/05/15 06:09:40;;;;;;;0.10;0.10;;;;;;;;;;5068748;28;20078;-60
2022/05/15 06:12:06;;;;;;;0.10;0.10;;;;;;;;;;5069244;28;20036;-62
2022/05/15 06:14:31;;;;;;;0.10;0.10;;;;;;;;;;5069280;28;20368;-60
2022/05/15 06:16:58;;;;;;;0.20;0.20;;;;;;;;;;5070621;28;20041;-60
2022/05/15 06:19:23;;;;;;;0.10;0.10;;;;;;;;;;5070904;28;20115;-61
2022/05/15 06:21:49;;;;;;;0.10;0.10;;;;;;;;;;5070465;28;20545;-60
2022/05/15 06:24:15;;;;;;;0.13;0.13;;;;;;;;;;5068723;28;20025;-60
2022/05/15 06:26:41;;;;;;;0.10;0.10;;;;;;;;;;5053005;28;20048;-60
2022/05/15 06:29:07;;;;;;;0.10;0.10;;;;;;;;;;5052388;28;20086;-60
2022/05/15 06:31:32;;;;;;;0.10;0.10;;;;;;;;;;5070482;28;20392;-60
2022/05/15 06:33:58;;;;;;;0.10;0.10;;;;;;;;;;5070176;28;20048;-60
2022/05/15 06:36:24;;;;;;;0.10;0.10;;;;;;;;;;5070072;28;20033;-61
2022/05/15 06:38:49;;;;;;;0.10;0.10;;;;;;;;;;5069793;28;20043;-60
2022/05/15 06:41:15;;;;;;;1.60;1.50;;;;;;;;;;5070311;28;20032;-60
2022/05/15 06:43:41;;;;;;;0.10;0.10;;;;;;;;;;5052452;28;20063;-60
2022/05/15 06:46:06;;;;;;;0.10;0.10;;;;;;;;;;5070081;28;20029;-60
2022/05/15 06:48:33;;;;;;;0.10;0.10;;;;;;;;;;5069453;28;20075;-60
2022/05/15 06:50:59;;;;;;;0.10;0.10;;;;;;;;;;5069871;28;20029;-60
2022/05/15 06:53:25;;;;;;;0.10;0.10;;;;;;;;;;5069869;28;20387;-60
2022/05/15 06:58:35;;;;;;;0.20;0.20;;;;;;;;;;5070236;28;20049;-60
2022/05/15 07:01:00;;;;;;;0.20;0.20;;;;;;;;;;5069954;28;20033;-60
2022/05/15 07:03:27;;;;;;;0.10;0.10;;;;;;;;;;5052244;28;20059;-60
2022/05/15 07:05:52;;;;;;;0.20;0.20;;;;;;;;;;5069813;28;20423;-60
2022/05/15 07:08:18;;;;;;;0.40;0.40;;;;;;;;;;5068927;28;20021;-61
2022/05/15 07:10:44;;;;;;;0.30;0.30;;;;;;;;;;5069489;28;20111;-60
2022/05/15 07:13:10;;;;;;;0.10;0.10;;;;;;;;;;5069789;28;20108;-60
2022/05/15 07:15:37;;;;;;;0.20;0.20;;;;;;;;;;5068518;28;20859;-61
2022/05/15 07:18:03;;;;;;;0.30;0.30;;;;;;;;;;5080826;28;20123;-61
2022/05/15 07:20:28;;;;;;;0.32;0.32;;;;;;;;;;5069540;28;20072;-61
2022/05/15 07:22:54;;;;;;;0.30;0.30;;;;;;;;;;5068438;28;20025;-60
2022/05/15 07:25:20;;;;;;;0.20;0.20;;;;;;;;;;5068175;28;20443;-60
2022/05/15 07:27:45;;;;;;;2.83;1.35;;;;;;;;;;5068226;28;20097;-61
2022/05/15 07:30:11;;;;;;;0.20;0.20;;;;;;;;;;5067839;28;20033;-61
2022/05/15 07:32:37;;;;;;;16.92;1.52;;;;;;;;;;5068226;28;20029;-60
2022/05/15 07:35:03;;;;;;;0.20;0.20;;;;;;;;;;5068551;28;20036;-60
2022/05/15 07:37:28;;;;;;;0.20;0.20;;;;;;;;;;5068713;28;20040;-61
2022/05/15 07:39:54;;;;;;;0.40;0.40;;;;;;;;;;5068308;28;20041;-60
2022/05/15 07:42:20;;;;;;;0.20;0.20;;;;;;;;;;5067434;28;20480;-60
2022/05/15 07:44:45;;;;;;;0.30;0.30;;;;;;;;;;5051110;28;20044;-61
2022/05/15 07:47:11;;;;;;;0.20;0.20;;;;;;;;;;5069265;28;20032;-61
2022/05/15 07:49:37;;;;;;;0.20;0.20;;;;;;;;;;5068549;28;20396;-61
2022/05/15 07:52:03;;;;;;;0.20;0.20;;;;;;;;;;5070011;28;20020;-60
2022/05/15 07:54:28;;;;;;;0.20;0.20;;;;;;;;;;5069051;28;20114;-60
2022/05/15 07:56:54;;;;;;;0.22;0.22;;;;;;;;;;5082356;28;20497;-60
2022/05/15 07:59:19;;;;;;;0.20;0.20;;;;;;;;;;5071190;28;20039;-60
2022/05/15 08:01:45;;;;;;;0.25;0.25;;;;;;;;;;5068075;28;20020;-60
2022/05/15 08:04:10;;;;;;;1.85;1.75;;;;;;;;;;5068547;28;20041;-61
2022/05/15 08:09:20;;;;;;;6.45;6.13;;;;;;;;;;5069030;28;20115;-61
2022/05/15 08:11:46;;;;;;;0.20;0.20;;;;;;;;;;5068953;28;20112;-61
2022/05/15 08:14:11;;;;;;;0.20;0.20;;;;;;;;;;5068958;28;20460;-60
2022/05/15 08:16:38;;;;;;;0.20;0.20;;;;;;;;;;5060714;28;20033;-60
2022/05/15 08:24:32;;;;;;;0.20;0.20;;;;;;;;;;5040089;28;20123;-64
2022/05/15 08:26:58;;;;;;;0.20;0.20;;;;;;;;;;5076847;28;20547;-64
2022/05/15 08:29:23;;;;;;;0.20;0.20;;;;;;;;;;5067899;28;20064;-65
2022/05/15 08:31:49;;;;;;;1.65;1.55;;;;;;;;;;5044251;28;20032;-64
2022/05/15 08:34:14;;;;;;;0.22;0.22;;;;;;;;;;5067444;28;20037;-65
2022/05/15 08:36:42;;;;;;;0.10;0.10;;;;;;;;;;5066933;28;20043;-64
2022/05/15 08:39:11;;;;;;;0.20;0.20;;;;;;;;;;5067483;28;20093;-65
2022/05/15 08:41:44;;;;;;;0.30;0.30;;;;;;;;;;5062070;28;20082;-65
2022/05/15 08:44:11;;;;;;;0.20;0.20;;;;;;;;;;5048390;28;20037;-64
2022/05/15 08:46:40;;;;;;;0.10;0.10;;;;;;;;;;5055853;28;20380;-64
2022/05/15 08:49:08;;;;;;;0.40;0.40;;;;;;;;;;5067818;28;20033;-64
2022/05/15 08:51:34;;;;;;;1.65;1.30;;;;;;;;;;5068367;28;20380;-64
2022/05/15 08:54:02;;;;;;;1.75;0.77;;;;;;;;;;5050410;28;20037;-64
2022/05/15 08:56:29;;;;;;;0.20;0.20;;;;;;;;;;5063902;28;20072;-66
2022/05/15 08:58:56;;;;;;;0.20;0.20;;;;;;;;;;5067687;28;20032;-64
2022/05/15 09:01:24;;;;;;;0.20;0.20;;;;;;;;;;5068006;28;20032;-64
2022/05/15 09:03:49;;;;;;;1.65;1.10;;;;;;;;;;5067960;28;20048;-66
2022/05/15 09:06:25;;;;;;;2.42;1.67;;;;;;;;;;5068045;28;20024;-63
2022/05/15 09:08:58;;;;;;;0.20;0.20;;;;;;;;;;5067010;28;20388;-66
2022/05/15 09:11:26;;;;;;;1.23;1.00;;;;;;;;;;5068177;28;20036;-65
2022/05/15 09:13:54;;;;;;;0.20;0.20;;;;;;;;;;5067127;28;20028;-63
2022/05/15 09:16:25;;;;;;;1.35;1.05;;;;;;;;;;5066884;28;20037;-64
2022/05/15 09:18:51;;;;;;;7.22;1.70;;;;;;;;;;5066942;28;20047;-64
2022/05/15 09:21:17;;;;;;;0.82;0.70;;;;;;;;;;5067199;28;20396;-64
2022/05/15 09:23:51;;;;;;;3.42;1.58;;;;;;;;;;5067762;28;20028;-63
2022/05/15 09:26:22;;;;;;;2.55;1.67;;;;;;;;;;5049424;28;20037;-64
2022/05/15 09:29:01;;;;;;;2.00;1.50;;;;;;;;;;5073618;28;20475;-63
2022/05/15 09:31:28;;;;;;;3.42;1.85;;;;;;;;;;5081890;28;20112;-63
2022/05/15 09:34:20;;;;;;;0.20;0.20;;;;;;;;;;5067310;28;20566;-63
2022/05/15 09:36:46;;;;;;;3.63;1.95;;;;;;;;;;5063755;28;20147;-63
2022/05/15 09:39:22;;;;;;;0.52;0.20;;;;;;;;;;5070945;28;20129;-62
2022/05/15 09:44:42;;;;;;;3.03;1.00;;;;;;;;;;5071161;28;20119;-63
2022/05/15 09:47:11;;;;;;;0.38;0.38;;;;;;;;;;5071284;28;20536;-63
2022/05/15 09:49:37;;;;;;;0.30;0.30;;;;;;;;;;5071380;28;20506;-63
2022/05/15 09:52:18;;;;;;;0.50;0.50;;;;;;;;;;5051454;28;20016;-63
2022/05/15 09:54:46;;;;;;;0.35;0.35;;;;;;;;;;5069295;28;20086;-63
2022/05/15 09:57:17;;;;;;;0.20;0.20;;;;;;;;;;5069057;28;20036;-63
2022/05/15 09:59:50;;;;;;;0.65;0.40;;;;;;;;;;5069082;28;20114;-63
2022/05/15 10:02:17;;;;;;;0.20;0.20;;;;;;;;;;5069043;28;20395;-64
2022/05/15 10:04:46;;;;;;;0.30;0.30;;;;;;;;;;5069724;28;20103;-63
2022/05/15 10:07:27;;;;;;;3.20;1.55;;;;;;;;;;5070280;28;20040;-63
2022/05/15 10:09:53;;;;;;;0.45;0.45;;;;;;;;;;5071247;28;20021;-63
2022/05/15 10:12:23;;;;;;;0.30;0.30;;;;;;;;;;5070572;28;20435;-63
2022/05/15 10:14:54;;;;;;;11.85;1.15;;;;;;;;;;5070866;28;20546;-62
2022/05/15 10:17:21;;;;;;;10.30;1.17;;;;;;;;;;5071003;28;20040;-62
2022/05/15 10:19:49;;;;;;;0.20;0.20;;;;;;;;;;5070664;28;20044;-65
2022/05/15 10:22:27;;;;;;;0.38;0.38;;;;;;;;;;5070540;28;20051;-65
2022/05/15 10:24:53;;;;;;;3.30;0.77;;;;;;;;;;5070832;28;20150;-65
2022/05/15 10:27:22;;;;;;;0.30;0.30;;;;;;;;;;5070886;28;20028;-64
2022/05/15 10:29:51;;;;;;;1.75;1.05;;;;;;;;;;5070781;28;20044;-65
2022/05/15 10:32:23;;;;;;;9.98;6.57;;;;;;;;;;5070397;28;20040;-65
2022/05/15 10:34:49;;;;;;;2.22;1.50;;;;;;;;;;5069517;28;20074;-64
2022/05/15 10:37:24;;;;;;;12.40;9.25;;;;;;;;;;5070191;28;20052;-63
2022/05/15 10:39:55;;;;;;;0.30;0.30;;;;;;;;;;5070198;28;20044;-64
2022/05/15 10:42:30;;;;;;;3.60;1.45;;;;;;;;;;5070046;28;20040;-65
2022/05/15 10:45:04;;;;;;;3.15;0.93;;;;;;;;;;5070363;28;20282;-63
2022/05/15 10:47:33;;;;;;;6.10;1.70;;;;;;;;;;5070051;28;20056;-63
2022/05/15 10:49:58;;;;;;;1.20;0.85;;;;;;;;;;5051782;28;20097;-64
2022/05/15 10:52:46;;;;;;;1.67;1.13;;;;;;;;;;5069821;28;20465;-64
2022/05/15 10:58:12;;;;;;;2.65;1.20;;;;;;;;;;5068559;28;20262;-64
2022/05/15 11:00:45;;;;;;;0.20;0.20;;;;;;;;;;5068565;28;20374;-64
2022/05/15 11:03:11;;;;;;;0.20;0.20;;;;;;;;;;5067884;28;20503;-65
2022/05/15 11:05:43;;;;;;;1.05;0.95;;;;;;;;;;5069916;28;20071;-63
2022/05/15 11:08:08;;;;;;;0.45;0.45;;;;;;;;;;5069761;28;20028;-65
2022/05/15 11:10:52;;;;;;;0.40;0.40;;;;;;;;;;5070248;28;20032;-64
2022/05/15 11:13:25;;;;;;;0.40;0.40;;;;;;;;;;5069622;28;20028;-63
2022/05/15 11:15:50;;;;;;;0.63;0.63;;;;;;;;;;5069848;28;20039;-63
2022/05/15 11:18:18;;;;;;;0.45;0.45;;;;;;;;;;5069703;28;20029;-63
2022/05/15 11:20:50;;;;;;;0.40;0.40;;;;;;;;;;5069710;28;20032;-63
2022/05/15 11:23:25;;;;;;;0.65;0.65;;;;;;;;;;5069534;28;20139;-64
2022/05/15 11:26:04;;;;;;;0.60;0.60;;;;;;;;;;5069659;28;20032;-63
2022/05/15 11:28:31;;;;;;;36.70;3.30;;;;;;;;;;5069518;28;20040;-65
2022/05/15 11:31:16;;;;;;;1.00;0.80;;;;;;;;;;5069539;28;20127;-64
2022/05/15 11:33:53;;;;;;;9.35;1.80;;;;;;;;;;5069279;28;20043;-63
2022/05/15 11:36:21;;;;;;;9.43;1.23;;;;;;;;;;5068915;28;20035;-64
2022/05/15 11:38:48;;;;;;;0.57;0.57;;;;;;;;;;5059071;28;20040;-65
2022/05/15 11:41:30;;;;;;;0.30;0.30;;;;;;;;;;5087232;28;20124;-64
2022/05/15 11:43:58;;;;;;;3.55;1.15;;;;;;;;;;5050451;28;20040;-64
2022/05/15 11:46:43;;;;;;;3.40;1.23;;;;;;;;;;5062547;28;20119;-64
2022/05/15 11:49:16;;;;;;;2.58;2.30;;;;;;;;;;5067836;28;20040;-63
2022/05/15 11:51:42;;;;;;;0.30;0.30;;;;;;;;;;5059986;28;20095;-65
2022/05/15 11:54:09;;;;;;;1.67;1.27;;;;;;;;;;5068673;28;20037;-64
2022/05/15 11:56:51;;;;;;;2.90;1.27;;;;;;;;;;5067394;28;20364;-64
2022/05/15 11:59:21;;;;;;;0.40;0.40;;;;;;;;;;5066808;28;20476;-64
2022/05/15 12:01:48;;;;;;;0.30;0.30;;;;;;;;;;5066300;28;20042;-65
2022/05/15 12:04:16;;;;;;;3.10;1.60;;;;;;;;;;5064485;28;20043;-64
2022/05/15 12:07:09;;;;;;;1.45;1.17;;;;;;;;;;5069108;28;20044;-65
2022/05/15 12:09:39;;;;;;;3.05;1.55;;;;;;;;;;5066034;28;20033;-63
2022/05/15 12:12:37;;;;;;;3.35;0.93;;;;;;;;;;5067681;28;20033;-63
2022/05/15 12:15:03;;;;;;;0.50;0.50;;;;;;;;;;5003981;28;20069;-64
2022/05/15 12:17:30;;;;;;;2.17;1.48;;;;;;;;;;5049311;28;20388;-64
2022/05/15 12:20:07;;;;;;;0.47;0.47;;;;;;;;;;5036573;28;20329;-65
2022/05/15 12:22:43;;;;;;;3.13;1.83;;;;;;;;;;5055098;28;20131;-64
2022/05/15 12:25:10;;;;;;;0.88;0.73;;;;;;;;;;5067160;28;20090;-64
2022/05/15 12:27:40;;;;;;;0.60;0.60;;;;;;;;;;5057608;28;20489;-66
2022/05/15 12:30:05;;;;;;;3.55;1.88;;;;;;;;;;5068139;28;20037;-64
2022/05/15 12:32:36;;;;;;;5.25;2.65;;;;;;;;;;5063198;28;20027;-64
2022/05/15 12:35:05;;;;;;;6.35;1.13;;;;;;;;;;5068733;28;20488;-64
2022/05/15 12:37:33;;;;;;;3.05;2.08;;;;;;;;;;5068596;28;20025;-65
2022/05/15 12:40:00;;;;;;;0.32;0.32;;;;;;;;;;5068542;28;20043;-65
2022/05/15 12:42:37;;;;;;;3.33;1.63;;;;;;;;;;5061576;28;20143;-64
2022/05/15 12:45:05;;;;;;;1.65;1.27;;;;;;;;;;5049398;28;20037;-65
2022/05/15 12:47:33;;;;;;;1.95;1.58;;;;;;;;;;5067017;28;20111;-64
2022/05/15 12:50:01;;;;;;;0.75;0.75;;;;;;;;;;5066553;28;20060;-64
2022/05/15 12:52:29;;;;;;;7.05;1.33;;;;;;;;;;5048656;28;20035;-65
2022/05/15 12:54:59;;;;;;;4.18;1.25;;;;;;;;;;5067248;28;20032;-64
2022/05/15 12:57:25;;;;;;;1.70;1.20;;;;;;;;;;5064918;28;20101;-65
2022/05/15 12:59:51;;;;;;;2.95;1.95;;;;;;;;;;5063374;28;20028;-64
2022/05/15 13:02:20;;;;;;;4.82;2.00;;;;;;;;;;5068964;28;20095;-63
2022/05/15 13:04:53;;;;;;;2.63;0.70;;;;;;;;;;5046285;28;20395;-66
2022/05/15 13:07:26;;;;;;;1.20;0.75;;;;;;;;;;5048325;28;20392;-63
2022/05/15 13:10:03;;;;;;;1.67;1.13;;;;;;;;;;5066033;28;20033;-63
2022/05/15 13:12:29;;;;;;;5.07;1.73;;;;;;;;;;5063384;28;20036;-63
2022/05/15 13:14:55;;;;;;;2.00;0.93;;;;;;;;;;5065115;28;20063;-66
2022/05/15 13:17:28;;;;;;;1.25;0.60;;;;;;;;;;5060123;28;20427;-66
2022/05/15 13:19:55;;;;;;;4.68;1.88;;;;;;;;;;5065425;28;20128;-65
2022/05/15 13:22:24;;;;;;;1.75;1.05;;;;;;;;;;5072666;28;20028;-63
2022/05/15 13:24:54;;;;;;;4.15;2.58;;;;;;;;;;5067162;28;20460;-64
2022/05/15 13:27:19;;;;;;;1.38;0.90;;;;;;;;;;5046380;28;20082;-63
2022/05/15 13:29:44;;;;;;;3.95;1.23;;;;;;;;;;5064981;28;20036;-64
2022/05/15 13:32:12;;;;;;;2.92;0.80;;;;;;;;;;5064908;28;20039;-65
2022/05/15 13:34:38;;;;;;;2.75;1.52;;;;;;;;;;5048679;28;20040;-63
2022/05/15 13:37:06;;;;;;;0.98;0.57;;;;;;;;;;5066687;28;20032;-64
2022/05/15 13:45:14;;;;;;;4.53;1.92;;;;;;;;;;5062320;28;20037;-63
2022/05/15 13:47:58;;;;;;;8.02;2.40;;;;;;;;;;5067569;28;20527;-63
2022/05/15 13:50:41;;;;;;;7.13;1.70;;;;;;;;;;5049519;28;20533;-63
2022/05/15 13:53:24;;;;;;;1.25;1.13;;;;;;;;;;5049785;28;20032;-65
2022/05/15 13:55:52;;;;;;;5.47;2.53;;;;;;;;;;5067161;28;20136;-64
2022/05/15 13:58:18;;;;;;;1.42;0.73;;;;;;;;;;5066376;28;20139;-63
2022/05/15 14:01:00;;;;;;;0.47;0.47;;;;;;;;;;5066759;28;20522;-63
2022/05/15 14:03:32;;;;;;;2.75;1.50;;;;;;;;;;5047271;28;20412;-62
2022/05/15 14:06:16;;;;;;;1.20;0.80;;;;;;;;;;5047304;28;20041;-65
2022/05/15 14:09:06;;;;;;;0.40;0.40;;;;;;;;;;5047341;28;20108;-65
2022/05/15 14:11:50;;;;;;;2.63;1.48;;;;;;;;;;5047482;28;20388;-63
2022/05/15 14:14:17;;;;;;;4.47;1.42;;;;;;;;;;5047323;28;20025;-63
2022/05/15 14:16:43;;;;;;;4.93;2.33;;;;;;;;;;5051906;28;20086;-66
2022/05/15 14:19:09;;;;;;;1.85;0.98;;;;;;;;;;5067268;28;20097;-65
2022/05/15 14:21:53;;;;;;;2.95;1.00;;;;;;;;;;5067218;28;20067;-63
2022/05/15 14:24:19;;;;;;;1.83;1.05;;;;;;;;;;5067282;28;20033;-64
2022/05/15 14:26:45;;;;;;;0.82;0.60;;;;;;;;;;5070818;28;20031;-63
2022/05/15 14:29:12;;;;;;;4.28;1.10;;;;;;;;;;5070730;28;20021;-64
2022/05/15 14:31:39;;;;;;;0.30;0.30;;;;;;;;;;5070577;28;20028;-63
2022/05/15 14:34:04;;;;;;;0.75;0.63;;;;;;;;;;5070773;28;20105;-63
2022/05/15 14:36:30;;;;;;;5.57;1.98;;;;;;;;;;5070502;28;20040;-64
2022/05/15 14:38:55;;;;;;;7.90;1.83;;;;;;;;;;5070202;28;20040;-62
2022/05/15 14:41:21;;;;;;;5.28;1.60;;;;;;;;;;5070556;28;20032;-62
2022/05/15 14:43:46;;;;;;;3.03;1.15;;;;;;;;;;5070388;28;20073;-63
2022/05/15 14:46:20;;;;;;;0.85;0.70;;;;;;;;;;5052147;28;20071;-64
2022/05/15 14:48:46;;;;;;;1.20;0.68;;;;;;;;;;5070413;28;20036;-62
2022/05/15 14:51:15;;;;;;;3.38;0.90;;;;;;;;;;5068806;28;20094;-63
2022/05/15 14:53:41;;;;;;;0.30;0.30;;;;;;;;;;5070424;28;20067;-62
2022/05/15 14:56:09;;;;;;;0.70;0.60;;;;;;;;;;5069803;28;20043;-63
2022/05/15 14:58:47;;;;;;;0.60;0.60;;;;;;;;;;5069047;28;20072;-62
2022/05/15 15:01:14;;;;;;;6.53;1.88;;;;;;;;;;5069796;28;20024;-62
2022/05/15 15:03:39;;;;;;;1.13;0.52;;;;;;;;;;5069793;28;20028;-61
2022/05/15 15:06:05;;;;;;;1.85;1.08;;;;;;;;;;5069977;28;20035;-62
2022/05/15 15:08:31;;;;;;;1.17;0.85;;;;;;;;;;5069967;28;20472;-63
2022/05/15 15:11:26;;;;;;;1.00;0.88;;;;;;;;;;5069837;28;20120;-62
2022/05/15 15:13:54;;;;;;;2.75;1.48;;;;;;;;;;5060866;28;20047;-61
2022/05/15 15:16:21;;;;;;;5.70;2.03;;;;;;;;;;5069589;28;20029;-62